Terminal Aerodrome Forecast
Issued by NWS

Home | Current Version | Previous Version | Text Only | Print | Product List | Glossary On
Versions: 1 2 3 4 5 6 7 8 9 10 11 12 13 14 15 16 17 18 19
000
FTUS43 KDDC 230200 AAA
TAFGCK
TAF AMD
KGCK 230216Z 2302/2324 15020G28KT P6SM SCT250
      TEMPO 2302/2303 5SM -SHRA BKN050
     FM231400 20027G37KT P6SM SCT250=

USA.gov is the U.S. government's official web portal to all federal, state and local government web resources and services.